Time;durP1;ratioP1;P1;durP2;ratioP2;P2;SDS_P1;SDS_P2;PMS_P1;PMS_P2;Temp;Humidity;BMP_temperature;BMP_pressure;BME280_temperature;BME280_humidity;BME280_pressure;Samples;Min_cycle;Max_cycle;Signal;HPM_P1;HPM_P2
2021/10/19 00:02:06;;;;;;;6.32;3.90;;;;;;;;;;5149492;27;20027;-73
2021/10/19 00:04:33;;;;;;;6.95;4.15;;;;;;;;;;5148085;27;20019;-74
2021/10/19 00:06:59;;;;;;;5.70;4.50;;;;;;;;;;5148245;27;20026;-74
2021/10/19 00:09:25;;;;;;;7.07;4.60;;;;;;;;;;5148717;27;20359;-74
2021/10/19 00:11:51;;;;;;;6.10;4.13;;;;;;;;;;5149124;27;20565;-74
2021/10/19 00:14:17;;;;;;;7.45;4.63;;;;;;;;;;5149249;27;20458;-74
2021/10/19 00:16:43;;;;;;;4.88;4.38;;;;;;;;;;5149144;27;20690;-73
2021/10/19 00:19:09;;;;;;;6.65;4.75;;;;;;;;;;5149349;27;20030;-73
2021/10/19 00:21:36;;;;;;;4.88;4.38;;;;;;;;;;5148084;27;20027;-74
2021/10/19 00:24:02;;;;;;;6.63;4.72;;;;;;;;;;5149194;27;20070;-73
2021/10/19 00:26:28;;;;;;;5.15;4.22;;;;;;;;;;5149283;27;20076;-73
2021/10/19 00:28:54;;;;;;;9.95;4.57;;;;;;;;;;5147530;27;20237;-73
2021/10/19 00:31:20;;;;;;;6.72;4.63;;;;;;;;;;5149532;27;20042;-73
2021/10/19 00:33:46;;;;;;;4.88;4.20;;;;;;;;;;5147313;27;20059;-74
2021/10/19 00:36:13;;;;;;;5.65;4.55;;;;;;;;;;5134676;27;20042;-74
2021/10/19 00:38:39;;;;;;;6.68;4.53;;;;;;;;;;5126727;27;20019;-74
2021/10/19 00:41:05;;;;;;;4.97;3.90;;;;;;;;;;5128430;27;20436;-73
2021/10/19 00:43:31;;;;;;;7.38;4.35;;;;;;;;;;5128122;27;20127;-74
2021/10/19 00:45:57;;;;;;;4.70;4.20;;;;;;;;;;5128355;27;20498;-74
2021/10/19 00:48:28;;;;;;;6.55;4.88;;;;;;;;;;5137608;27;20030;-73
2021/10/19 00:50:55;;;;;;;6.60;4.30;;;;;;;;;;5147355;27;20429;-73
2021/10/19 00:53:22;;;;;;;5.53;4.60;;;;;;;;;;5148893;27;20064;-73
2021/10/19 00:55:48;;;;;;;6.35;4.32;;;;;;;;;;5149077;27;20015;-73
2021/10/19 00:58:14;;;;;;;8.77;4.47;;;;;;;;;;5148332;27;20031;-74
2021/10/19 01:00:41;;;;;;;6.20;4.30;;;;;;;;;;5148388;27;20022;-73
2021/10/19 01:03:07;;;;;;;4.50;4.00;;;;;;;;;;5148301;27;20428;-74
2021/10/19 01:05:34;;;;;;;5.05;4.32;;;;;;;;;;5146778;27;20023;-73
2021/10/19 01:08:00;;;;;;;4.55;4.10;;;;;;;;;;5148694;27;20165;-74
2021/10/19 01:10:26;;;;;;;6.65;4.30;;;;;;;;;;5148253;27;20023;-73
2021/10/19 01:12:53;;;;;;;6.22;4.18;;;;;;;;;;5148363;27;20033;-73
2021/10/19 01:15:19;;;;;;;4.65;4.05;;;;;;;;;;5148641;27;20482;-74
2021/10/19 01:17:46;;;;;;;6.00;4.10;;;;;;;;;;5148225;27;20486;-73
2021/10/19 01:20:29;;;;;;;5.35;3.88;;;;;;;;;;5144900;27;20081;-74
2021/10/19 01:22:56;;;;;;;5.60;3.90;;;;;;;;;;5123947;27;20032;-73
2021/10/19 01:25:24;;;;;;;5.90;4.53;;;;;;;;;;5123208;28;20035;-72
2021/10/19 01:27:54;;;;;;;5.28;4.05;;;;;;;;;;5122712;28;20169;-73
2021/10/19 01:30:21;;;;;;;5.90;4.07;;;;;;;;;;5139597;27;20053;-73
2021/10/19 01:32:47;;;;;;;5.25;3.83;;;;;;;;;;5143293;27;20505;-73
2021/10/19 01:35:13;;;;;;;5.03;3.80;;;;;;;;;;5141997;27;20140;-73
2021/10/19 01:37:40;;;;;;;5.30;3.92;;;;;;;;;;5143470;27;20038;-73
2021/10/19 01:40:16;;;;;;;5.93;3.88;;;;;;;;;;5143742;27;20057;-73
2021/10/19 01:42:43;;;;;;;5.75;4.30;;;;;;;;;;5143818;27;20536;-73
2021/10/19 01:45:13;;;;;;;4.15;3.75;;;;;;;;;;5141372;27;20463;-73
2021/10/19 01:47:39;;;;;;;4.63;4.07;;;;;;;;;;5143445;27;20091;-73
2021/10/19 01:50:05;;;;;;;5.32;3.85;;;;;;;;;;5143667;27;20784;-73
2021/10/19 01:52:32;;;;;;;5.05;4.32;;;;;;;;;;5143466;27;20031;-73
2021/10/19 01:54:58;;;;;;;5.15;3.50;;;;;;;;;;5141600;27;20015;-73
2021/10/19 01:57:24;;;;;;;4.70;3.63;;;;;;;;;;5140942;27;20185;-73
2021/10/19 01:59:50;;;;;;;5.05;4.55;;;;;;;;;;5143134;27;20719;-73
2021/10/19 02:02:16;;;;;;;5.50;4.40;;;;;;;;;;5142004;27;20049;-73
2021/10/19 02:04:43;;;;;;;4.45;3.97;;;;;;;;;;5142231;27;20022;-73
2021/10/19 02:07:09;;;;;;;6.60;4.28;;;;;;;;;;5143269;27;20503;-73
2021/10/19 02:09:35;;;;;;;5.05;4.03;;;;;;;;;;5142647;27;20546;-73
2021/10/19 02:12:01;;;;;;;4.75;4.10;;;;;;;;;;5143144;27;20697;-73
2021/10/19 02:14:27;;;;;;;8.27;6.10;;;;;;;;;;5141742;27;20022;-73
2021/10/19 02:16:53;;;;;;;8.38;7.38;;;;;;;;;;5143068;27;20148;-73
2021/10/19 02:19:22;;;;;;;10.68;6.35;;;;;;;;;;5142176;27;20386;-73
2021/10/19 02:21:49;;;;;;;7.65;6.20;;;;;;;;;;5129654;27;20031;-73
2021/10/19 02:24:15;;;;;;;8.30;6.43;;;;;;;;;;5122709;27;20106;-73
2021/10/19 02:26:41;;;;;;;9.80;6.40;;;;;;;;;;5121008;27;20029;-73
2021/10/19 02:29:08;;;;;;;9.65;6.15;;;;;;;;;;5122407;28;20043;-73
2021/10/19 02:31:34;;;;;;;8.07;6.20;;;;;;;;;;5124155;27;20035;-73
2021/10/19 02:34:00;;;;;;;6.82;6.13;;;;;;;;;;5125918;27;20019;-73
2021/10/19 02:36:26;;;;;;;7.32;6.10;;;;;;;;;;5126061;27;20406;-72
2021/10/19 02:38:52;;;;;;;7.10;6.13;;;;;;;;;;5124307;27;20031;-73
2021/10/19 02:41:19;;;;;;;7.07;6.00;;;;;;;;;;5126056;27;20031;-73
2021/10/19 02:43:45;;;;;;;7.07;6.20;;;;;;;;;;5126084;27;20073;-73
2021/10/19 02:46:12;;;;;;;7.28;6.53;;;;;;;;;;5126979;27;20027;-73
2021/10/19 02:48:38;;;;;;;11.20;6.65;;;;;;;;;;5146220;27;20023;-73
2021/10/19 02:51:04;;;;;;;7.60;6.85;;;;;;;;;;5146345;27;20041;-72
2021/10/19 02:53:30;;;;;;;7.38;6.53;;;;;;;;;;5144799;27;20019;-73
2021/10/19 02:55:56;;;;;;;9.02;7.45;;;;;;;;;;5144279;27;20067;-73
2021/10/19 02:58:23;;;;;;;9.52;7.70;;;;;;;;;;5145449;27;20170;-73
2021/10/19 03:00:49;;;;;;;8.85;7.72;;;;;;;;;;5146324;27;20026;-73
2021/10/19 03:03:15;;;;;;;11.55;7.03;;;;;;;;;;5141073;27;20041;-73
2021/10/19 03:05:41;;;;;;;8.18;7.38;;;;;;;;;;5143842;27;20421;-73
2021/10/19 03:08:07;;;;;;;10.10;7.80;;;;;;;;;;5143520;27;20589;-73
2021/10/19 03:10:34;;;;;;;9.45;7.80;;;;;;;;;;5143467;27;20090;-73
2021/10/19 03:13:00;;;;;;;9.43;8.32;;;;;;;;;;5143256;27;20030;-73
2021/10/19 03:15:26;;;;;;;8.82;6.95;;;;;;;;;;5141771;27;20070;-74
2021/10/19 03:17:52;;;;;;;9.18;7.55;;;;;;;;;;5143442;27;20768;-73
2021/10/19 03:20:18;;;;;;;10.82;7.72;;;;;;;;;;5143085;27;20538;-73
2021/10/19 03:22:44;;;;;;;11.30;7.40;;;;;;;;;;5121614;27;20618;-73
2021/10/19 03:25:11;;;;;;;9.65;8.18;;;;;;;;;;5122731;27;20072;-73
2021/10/19 03:27:37;;;;;;;8.30;7.47;;;;;;;;;;5122611;27;20713;-73
2021/10/19 03:30:04;;;;;;;9.32;7.65;;;;;;;;;;5136455;27;20418;-73
2021/10/19 03:32:30;;;;;;;9.27;7.47;;;;;;;;;;5141672;27;20023;-73
2021/10/19 03:34:57;;;;;;;9.10;8.18;;;;;;;;;;5143172;27;20023;-73
2021/10/19 03:37:24;;;;;;;8.95;7.75;;;;;;;;;;5141964;27;20188;-73
2021/10/19 03:39:50;;;;;;;12.52;8.65;;;;;;;;;;5141558;27;20007;-73
2021/10/19 03:42:16;;;;;;;9.57;8.65;;;;;;;;;;5140588;27;20034;-73
2021/10/19 03:44:42;;;;;;;9.27;8.35;;;;;;;;;;5139024;27;20374;-73
2021/10/19 03:47:09;;;;;;;10.15;8.98;;;;;;;;;;5139637;27;20292;-73
2021/10/19 03:49:35;;;;;;;10.55;9.18;;;;;;;;;;5141530;27;20015;-73
2021/10/19 03:52:01;;;;;;;10.32;8.95;;;;;;;;;;5141474;27;20026;-73
2021/10/19 03:54:27;;;;;;;9.20;8.30;;;;;;;;;;5140461;27;20043;-73
2021/10/19 03:56:54;;;;;;;9.23;7.82;;;;;;;;;;5142289;27;20099;-73
2021/10/19 03:59:20;;;;;;;8.60;7.80;;;;;;;;;;5140796;27;20077;-73
2021/10/19 04:01:46;;;;;;;10.60;7.82;;;;;;;;;;5141946;27;20075;-73
2021/10/19 04:04:13;;;;;;;8.13;7.22;;;;;;;;;;5141910;27;20038;-73
2021/10/19 04:06:40;;;;;;;7.93;7.15;;;;;;;;;;5141682;27;20102;-73
2021/10/19 04:09:07;;;;;;;7.70;6.95;;;;;;;;;;5140159;27;20027;-73
2021/10/19 04:11:33;;;;;;;9.07;7.10;;;;;;;;;;5142208;27;20390;-73
2021/10/19 04:13:59;;;;;;;7.40;6.65;;;;;;;;;;5142463;27;20019;-73
2021/10/19 04:16:25;;;;;;;8.45;6.13;;;;;;;;;;5141604;27;20031;-73
2021/10/19 04:18:51;;;;;;;7.50;6.78;;;;;;;;;;5142394;27;20027;-73
2021/10/19 04:21:17;;;;;;;10.50;6.57;;;;;;;;;;5140096;27;20026;-73
2021/10/19 04:23:44;;;;;;;9.82;6.57;;;;;;;;;;5140589;27;20204;-73
2021/10/19 04:26:10;;;;;;;8.80;6.82;;;;;;;;;;5142917;27;20019;-72
2021/10/19 04:28:36;;;;;;;9.77;6.70;;;;;;;;;;5141914;27;20101;-73
2021/10/19 04:31:02;;;;;;;7.40;6.60;;;;;;;;;;5141954;27;20063;-73
2021/10/19 04:33:29;;;;;;;8.07;6.13;;;;;;;;;;5141841;27;20101;-73
2021/10/19 04:35:55;;;;;;;6.97;6.18;;;;;;;;;;5139499;27;20026;-73
2021/10/19 04:38:21;;;;;;;9.55;5.68;;;;;;;;;;5141758;27;20026;-73
2021/10/19 04:40:47;;;;;;;13.65;6.13;;;;;;;;;;5142016;27;20078;-73
2021/10/19 04:43:13;;;;;;;6.47;4.88;;;;;;;;;;5141684;27;20030;-73
2021/10/19 04:45:39;;;;;;;8.23;5.53;;;;;;;;;;5141402;27;20066;-73
2021/10/19 04:48:05;;;;;;;6.38;5.45;;;;;;;;;;5139667;27;20023;-73
2021/10/19 04:50:34;;;;;;;8.70;5.68;;;;;;;;;;5141860;27;20370;-73
2021/10/19 04:53:01;;;;;;;6.30;5.55;;;;;;;;;;5141467;27;20418;-73
2021/10/19 04:55:28;;;;;;;6.15;5.55;;;;;;;;;;5138944;27;20102;-73
2021/10/19 04:57:54;;;;;;;6.47;5.40;;;;;;;;;;5139034;27;20053;-73
2021/10/19 05:00:20;;;;;;;6.38;4.82;;;;;;;;;;5141605;27;20034;-73
2021/10/19 05:02:47;;;;;;;5.88;5.28;;;;;;;;;;5141355;27;20035;-73
2021/10/19 05:05:17;;;;;;;5.68;5.18;;;;;;;;;;5140744;27;20034;-73
2021/10/19 05:07:44;;;;;;;5.70;5.13;;;;;;;;;;5139360;27;20098;-73
2021/10/19 05:10:10;;;;;;;5.93;5.32;;;;;;;;;;5140924;27;20023;-73
2021/10/19 05:12:36;;;;;;;7.05;5.13;;;;;;;;;;5141412;27;20090;-73
2021/10/19 05:15:03;;;;;;;7.30;5.45;;;;;;;;;;5140816;27;20025;-73
2021/10/19 05:17:29;;;;;;;6.60;5.72;;;;;;;;;;5140629;27;20337;-73
2021/10/19 05:19:56;;;;;;;9.73;5.75;;;;;;;;;;5140574;27;20024;-73
2021/10/19 05:22:23;;;;;;;6.22;5.43;;;;;;;;;;5121908;27;20435;-72
2021/10/19 05:24:49;;;;;;;6.75;5.10;;;;;;;;;;5120438;28;20067;-73
2021/10/19 05:27:15;;;;;;;6.07;5.38;;;;;;;;;;5121033;28;20031;-73
2021/10/19 05:29:41;;;;;;;6.32;5.15;;;;;;;;;;5122812;27;20201;-73
2021/10/19 05:32:07;;;;;;;5.32;4.82;;;;;;;;;;5140646;27;20031;-72
2021/10/19 05:34:33;;;;;;;7.03;4.95;;;;;;;;;;5139271;27;20022;-73
2021/10/19 05:36:59;;;;;;;8.35;5.03;;;;;;;;;;5140697;27;20035;-73
2021/10/19 05:39:26;;;;;;;7.15;5.47;;;;;;;;;;5142748;27;20026;-73
2021/10/19 05:41:52;;;;;;;7.65;4.53;;;;;;;;;;5143684;27;20030;-72
2021/10/19 05:44:18;;;;;;;5.18;4.57;;;;;;;;;;5143234;27;20514;-73
2021/10/19 05:46:44;;;;;;;5.43;4.53;;;;;;;;;;5143084;27;20501;-73
2021/10/19 05:49:10;;;;;;;7.68;4.95;;;;;;;;;;5141852;27;20398;-71
2021/10/19 05:51:36;;;;;;;5.28;4.40;;;;;;;;;;5143594;27;20094;-72
2021/10/19 05:54:02;;;;;;;5.18;4.68;;;;;;;;;;5142544;27;20031;-72
2021/10/19 05:56:29;;;;;;;6.57;4.53;;;;;;;;;;5142823;27;20193;-72
2021/10/19 05:58:55;;;;;;;8.30;4.70;;;;;;;;;;5139990;27;20047;-72
2021/10/19 06:01:21;;;;;;;7.35;4.22;;;;;;;;;;5142717;27;20183;-72
2021/10/19 06:03:47;;;;;;;5.15;4.53;;;;;;;;;;5143072;27;20027;-72
2021/10/19 06:06:14;;;;;;;5.85;4.55;;;;;;;;;;5144008;27;20029;-72
2021/10/19 06:08:40;;;;;;;6.75;4.40;;;;;;;;;;5146442;27;20030;-72
2021/10/19 06:11:06;;;;;;;5.85;4.60;;;;;;;;;;5146154;27;20090;-74
2021/10/19 06:13:33;;;;;;;5.93;4.65;;;;;;;;;;5144421;27;20015;-72
2021/10/19 06:15:59;;;;;;;7.95;4.50;;;;;;;;;;5146466;27;20035;-71
2021/10/19 06:18:25;;;;;;;5.70;4.50;;;;;;;;;;5145652;27;20054;-72
2021/10/19 06:20:52;;;;;;;5.13;4.28;;;;;;;;;;5146707;27;20034;-73
2021/10/19 06:23:19;;;;;;;6.40;4.63;;;;;;;;;;5147192;27;20023;-72
2021/10/19 06:25:45;;;;;;;5.47;4.43;;;;;;;;;;5144479;27;20026;-72
2021/10/19 06:28:12;;;;;;;5.32;4.38;;;;;;;;;;5143230;27;20495;-73
2021/10/19 06:30:38;;;;;;;7.80;4.40;;;;;;;;;;5146567;27;20033;-72
2021/10/19 06:33:04;;;;;;;4.97;4.28;;;;;;;;;;5141880;27;20021;-72
2021/10/19 06:35:30;;;;;;;7.13;4.35;;;;;;;;;;5145889;27;20023;-72
2021/10/19 06:37:56;;;;;;;5.95;4.35;;;;;;;;;;5129522;27;20031;-71
2021/10/19 06:40:23;;;;;;;6.25;4.75;;;;;;;;;;5133124;27;20049;-72
2021/10/19 06:42:49;;;;;;;5.75;4.82;;;;;;;;;;5130842;27;20027;-72
2021/10/19 06:45:15;;;;;;;4.82;4.32;;;;;;;;;;5129050;27;20027;-72
2021/10/19 06:47:41;;;;;;;5.00;4.15;;;;;;;;;;5133452;27;20049;-72
2021/10/19 06:50:10;;;;;;;5.00;4.50;;;;;;;;;;5128178;27;20019;-73
2021/10/19 06:52:36;;;;;;;35.08;6.55;;;;;;;;;;5134935;27;20019;-71
2021/10/19 06:55:06;;;;;;;4.88;4.35;;;;;;;;;;5144963;27;20147;-70
2021/10/19 06:57:37;;;;;;;7.15;4.38;;;;;;;;;;5143293;27;20046;-70
2021/10/19 07:00:04;;;;;;;31.23;8.85;;;;;;;;;;5144630;27;20031;-71
2021/10/19 07:02:30;;;;;;;9.30;4.65;;;;;;;;;;5136999;27;20026;-73
2021/10/19 07:04:57;;;;;;;4.90;4.40;;;;;;;;;;5145331;27;20019;-72
2021/10/19 07:07:23;;;;;;;7.13;5.05;;;;;;;;;;5145291;27;20382;-72
2021/10/19 07:09:49;;;;;;;6.78;4.60;;;;;;;;;;5143959;27;20632;-73
2021/10/19 07:12:15;;;;;;;5.28;4.78;;;;;;;;;;5145488;27;20506;-72
2021/10/19 07:14:43;;;;;;;5.45;4.13;;;;;;;;;;5145843;27;20019;-72
2021/10/19 07:17:09;;;;;;;5.57;4.40;;;;;;;;;;5144718;27;20069;-72
2021/10/19 07:19:38;;;;;;;7.63;5.35;;;;;;;;;;5143362;27;20038;-73
2021/10/19 07:22:04;;;;;;;6.40;4.47;;;;;;;;;;5145816;27;20031;-74
2021/10/19 07:24:30;;;;;;;6.00;4.22;;;;;;;;;;5145179;27;20041;-72
2021/10/19 07:26:57;;;;;;;7.65;5.57;;;;;;;;;;5139206;27;20027;-73
2021/10/19 07:29:23;;;;;;;12.40;5.10;;;;;;;;;;5138476;27;20031;-73
2021/10/19 07:31:49;;;;;;;7.82;4.50;;;;;;;;;;5145792;27;20033;-73
2021/10/19 07:34:15;;;;;;;6.55;4.65;;;;;;;;;;5143421;27;20151;-72
2021/10/19 07:36:41;;;;;;;10.95;4.40;;;;;;;;;;5144697;27;20083;-72
2021/10/19 07:39:07;;;;;;;7.78;4.15;;;;;;;;;;5138145;27;20078;-72
2021/10/19 07:41:36;;;;;;;5.13;4.60;;;;;;;;;;5142734;27;20041;-72
2021/10/19 07:44:02;;;;;;;8.73;4.75;;;;;;;;;;5141502;27;20030;-73
2021/10/19 07:46:28;;;;;;;13.75;5.10;;;;;;;;;;5142268;27;20027;-73
2021/10/19 07:48:55;;;;;;;7.32;5.10;;;;;;;;;;5142500;27;20466;-72
2021/10/19 07:51:21;;;;;;;5.40;4.63;;;;;;;;;;5120995;27;20089;-72
2021/10/19 07:53:48;;;;;;;5.68;4.35;;;;;;;;;;5121883;27;20058;-72
2021/10/19 07:56:15;;;;;;;11.63;4.82;;;;;;;;;;5132820;27;20031;-72
2021/10/19 07:58:42;;;;;;;9.20;4.47;;;;;;;;;;5141986;27;20054;-72
2021/10/19 08:01:08;;;;;;;8.88;6.15;;;;;;;;;;5141788;27;20428;-72
2021/10/19 08:03:34;;;;;;;7.13;4.40;;;;;;;;;;5140571;27;21001;-72
2021/10/19 08:06:00;;;;;;;6.30;4.80;;;;;;;;;;5139822;27;20494;-73
2021/10/19 08:08:27;;;;;;;8.68;6.28;;;;;;;;;;5140772;27;20084;-72
2021/10/19 08:10:53;;;;;;;9.23;6.40;;;;;;;;;;5141488;27;20026;-72
2021/10/19 08:13:19;;;;;;;7.45;6.57;;;;;;;;;;5140043;27;20140;-71
2021/10/19 08:15:46;;;;;;;7.65;5.93;;;;;;;;;;5139037;27;20054;-73
2021/10/19 08:18:12;;;;;;;6.47;5.88;;;;;;;;;;5140869;27;20035;-72
2021/10/19 08:20:39;;;;;;;8.90;5.63;;;;;;;;;;5141184;27;20018;-72
2021/10/19 08:23:06;;;;;;;7.70;5.63;;;;;;;;;;5139800;27;20029;-72
2021/10/19 08:25:32;;;;;;;9.10;5.85;;;;;;;;;;5140068;27;20103;-71
2021/10/19 08:27:58;;;;;;;8.32;4.90;;;;;;;;;;5140890;27;20575;-72
2021/10/19 08:30:25;;;;;;;5.45;4.90;;;;;;;;;;5140260;27;20027;-72
2021/10/19 08:32:51;;;;;;;14.20;4.97;;;;;;;;;;5136766;27;20427;-72
2021/10/19 08:35:19;;;;;;;5.63;4.32;;;;;;;;;;5124889;27;20531;-72
2021/10/19 08:37:46;;;;;;;5.75;3.97;;;;;;;;;;5123905;27;20047;-72
2021/10/19 08:40:12;;;;;;;4.47;3.85;;;;;;;;;;5129712;27;20034;-72
2021/10/19 08:42:44;;;;;;;4.53;4.13;;;;;;;;;;5121593;27;20655;-73
2021/10/19 08:45:11;;;;;;;5.10;4.07;;;;;;;;;;5121833;27;20027;-72
2021/10/19 08:47:37;;;;;;;4.57;3.60;;;;;;;;;;5141240;27;20428;-72
2021/10/19 08:50:04;;;;;;;4.35;3.53;;;;;;;;;;5140221;27;20018;-72
2021/10/19 08:52:31;;;;;;;4.50;3.85;;;;;;;;;;5140947;27;20053;-72
2021/10/19 08:54:57;;;;;;;4.70;4.30;;;;;;;;;;5139208;27;20034;-72
2021/10/19 08:57:23;;;;;;;4.97;3.90;;;;;;;;;;5140632;27;20043;-71
2021/10/19 08:59:49;;;;;;;9.15;4.47;;;;;;;;;;5122199;27;20519;-72
2021/10/19 09:02:16;;;;;;;4.28;3.88;;;;;;;;;;5129367;27;20031;-72
2021/10/19 09:04:43;;;;;;;6.38;4.10;;;;;;;;;;5120254;27;20342;-72
2021/10/19 09:07:10;;;;;;;4.75;4.28;;;;;;;;;;5132641;27;20490;-71
2021/10/19 09:09:37;;;;;;;5.43;4.07;;;;;;;;;;5139658;27;20027;-72
2021/10/19 09:12:03;;;;;;;4.55;4.10;;;;;;;;;;5139060;27;20025;-72
2021/10/19 09:14:31;;;;;;;8.48;3.97;;;;;;;;;;5131143;27;20094;-72
2021/10/19 09:17:00;;;;;;;5.68;4.40;;;;;;;;;;5120029;27;20046;-71
2021/10/19 09:19:27;;;;;;;4.72;4.07;;;;;;;;;;5120681;27;20019;-73
2021/10/19 09:21:55;;;;;;;6.05;4.47;;;;;;;;;;5138867;27;20037;-72
2021/10/19 09:24:24;;;;;;;4.93;4.43;;;;;;;;;;5141061;27;20462;-73
2021/10/19 09:26:51;;;;;;;5.82;4.25;;;;;;;;;;5139833;27;20399;-71
2021/10/19 09:29:17;;;;;;;5.13;4.22;;;;;;;;;;5140092;27;20501;-73
2021/10/19 09:31:43;;;;;;;4.45;4.05;;;;;;;;;;5140312;27;20431;-72
2021/10/19 09:34:15;;;;;;;5.10;4.28;;;;;;;;;;5140175;27;20042;-71
2021/10/19 09:36:41;;;;;;;6.25;4.82;;;;;;;;;;5135997;27;20023;-71
2021/10/19 09:39:08;;;;;;;5.63;4.60;;;;;;;;;;5138451;27;20031;-72
2021/10/19 09:41:44;;;;;;;4.40;4.00;;;;;;;;;;5142474;27;20264;-72
2021/10/19 09:44:16;;;;;;;4.45;4.05;;;;;;;;;;5144526;27;20748;-74
2021/10/19 09:46:42;;;;;;;;;;;;;;;;;;5144418;27;20023;-71
2021/10/19 09:49:09;;;;;;;4.80;4.25;;;;;;;;;;5145185;27;20349;-71
2021/10/19 09:51:38;;;;;;;4.65;4.22;;;;;;;;;;5145958;27;20015;-72
2021/10/19 09:54:12;;;;;;;4.47;4.00;;;;;;;;;;5146275;27;20027;-71
2021/10/19 09:56:39;;;;;;;4.45;4.05;;;;;;;;;;5143596;27;20014;-71
2021/10/19 09:59:06;;;;;;;4.70;3.95;;;;;;;;;;5145764;27;20078;-71
2021/10/19 10:01:35;;;;;;;6.65;5.03;;;;;;;;;;5142736;27;20025;-71
2021/10/19 10:04:01;;;;;;;4.65;4.18;;;;;;;;;;5134756;27;20554;-71
2021/10/19 10:06:28;;;;;;;5.25;4.10;;;;;;;;;;5146583;27;20476;-72
2021/10/19 10:08:55;;;;;;;5.88;4.30;;;;;;;;;;5144587;27;20069;-71
2021/10/19 10:11:21;;;;;;;4.57;4.15;;;;;;;;;;5145437;27;20027;-73
2021/10/19 10:14:02;;;;;;;7.38;4.40;;;;;;;;;;5145452;27;20470;-73
2021/10/19 10:16:28;;;;;;;4.25;3.85;;;;;;;;;;5146187;27;20069;-71
2021/10/19 10:18:55;;;;;;;5.55;4.30;;;;;;;;;;5144676;27;20486;-72
2021/10/19 10:21:23;;;;;;;5.68;5.07;;;;;;;;;;5145340;27;20041;-72
2021/10/19 10:23:59;;;;;;;6.38;4.55;;;;;;;;;;5145845;27;20050;-71
2021/10/19 10:26:26;;;;;;;5.82;5.28;;;;;;;;;;5145747;27;20029;-71
2021/10/19 10:28:52;;;;;;;5.97;5.10;;;;;;;;;;5144361;27;20038;-71
2021/10/19 10:31:24;;;;;;;5.15;4.38;;;;;;;;;;5145809;27;20027;-71
2021/10/19 10:34:00;;;;;;;6.53;4.80;;;;;;;;;;5125412;27;20483;-71
2021/10/19 10:36:35;;;;;;;5.38;4.68;;;;;;;;;;5141243;27;20320;-71
2021/10/19 10:39:03;;;;;;;9.80;4.82;;;;;;;;;;5136910;27;20023;-72
2021/10/19 10:41:36;;;;;;;7.32;4.80;;;;;;;;;;5125527;27;20058;-71
2021/10/19 10:44:02;;;;;;;5.47;4.90;;;;;;;;;;5122793;27;20107;-72
2021/10/19 10:46:29;;;;;;;8.27;5.28;;;;;;;;;;5121450;27;20093;-72
2021/10/19 10:48:56;;;;;;;5.40;4.90;;;;;;;;;;5138947;27;20031;-72
2021/10/19 10:51:29;;;;;;;7.43;5.03;;;;;;;;;;5142839;27;20026;-72
2021/10/19 10:53:55;;;;;;;6.10;3.88;;;;;;;;;;5143617;27;20031;-71
2021/10/19 10:56:22;;;;;;;4.70;4.13;;;;;;;;;;5142380;27;20091;-71
2021/10/19 10:58:49;;;;;;;4.95;4.50;;;;;;;;;;5142814;27;20649;-71
2021/10/19 11:01:22;;;;;;;7.45;4.25;;;;;;;;;;5141657;27;20118;-72
2021/10/19 11:03:52;;;;;;;8.20;4.75;;;;;;;;;;5141904;27;20359;-72
2021/10/19 11:06:20;;;;;;;5.22;4.72;;;;;;;;;;5142996;27;20034;-71
2021/10/19 11:08:47;;;;;;;6.20;5.00;;;;;;;;;;5142647;27;20030;-71
2021/10/19 11:11:18;;;;;;;5.15;4.38;;;;;;;;;;5142989;27;20038;-71
2021/10/19 11:13:46;;;;;;;6.87;4.80;;;;;;;;;;5142450;27;20045;-72
2021/10/19 11:16:12;;;;;;;7.30;4.65;;;;;;;;;;5139803;27;20629;-72
2021/10/19 11:18:38;;;;;;;6.07;4.70;;;;;;;;;;5142994;27;20033;-72
2021/10/19 11:21:05;;;;;;;5.40;4.90;;;;;;;;;;5142786;27;20023;-71
2021/10/19 11:23:31;;;;;;;6.00;4.70;;;;;;;;;;5142915;27;20071;-71
2021/10/19 11:25:59;;;;;;;4.45;4.05;;;;;;;;;;5142326;27;20033;-71
2021/10/19 11:28:25;;;;;;;5.38;4.88;;;;;;;;;;5139869;27;20062;-71
2021/10/19 11:30:52;;;;;;;4.88;4.15;;;;;;;;;;5142369;27;20030;-71
2021/10/19 11:33:18;;;;;;;6.65;4.25;;;;;;;;;;5142482;27;20490;-71
2021/10/19 11:35:44;;;;;;;4.00;3.60;;;;;;;;;;5142074;27;20328;-72
2021/10/19 11:38:10;;;;;;;5.50;4.45;;;;;;;;;;5141668;27;20276;-72
2021/10/19 11:40:36;;;;;;;4.65;4.13;;;;;;;;;;5137415;27;20140;-71
2021/10/19 11:43:03;;;;;;;6.55;4.35;;;;;;;;;;5139803;27;20054;-72
2021/10/19 11:45:30;;;;;;;4.32;3.90;;;;;;;;;;5141815;27;20041;-72
2021/10/19 11:47:58;;;;;;;5.57;4.22;;;;;;;;;;5139874;27;20113;-71
2021/10/19 11:50:29;;;;;;;4.88;3.90;;;;;;;;;;5141830;27;20048;-71
2021/10/19 11:52:55;;;;;;;6.90;4.15;;;;;;;;;;5141271;27;20034;-71
2021/10/19 11:55:22;;;;;;;4.50;4.10;;;;;;;;;;5138965;27;20031;-71
2021/10/19 11:57:52;;;;;;;4.38;3.85;;;;;;;;;;5140656;27;20091;-71
2021/10/19 12:00:19;;;;;;;4.82;4.10;;;;;;;;;;5141682;27;20035;-72
2021/10/19 12:03:03;;;;;;;4.70;3.70;;;;;;;;;;5141983;27;20033;-71
2021/10/19 12:05:30;;;;;;;7.95;5.68;;;;;;;;;;5128694;27;20069;-72
2021/10/19 12:07:57;;;;;;;8.18;5.93;;;;;;;;;;5132056;27;20698;-71
2021/10/19 12:10:32;;;;;;;7.43;4.93;;;;;;;;;;5140782;27;20039;-72
2021/10/19 12:13:06;;;;;;;6.35;4.93;;;;;;;;;;5141206;27;20027;-71
2021/10/19 12:15:33;;;;;;;6.55;4.13;;;;;;;;;;5141975;27;20019;-71
2021/10/19 12:18:05;;;;;;;5.55;4.43;;;;;;;;;;5136196;27;20043;-71
2021/10/19 12:20:32;;;;;;;5.70;4.22;;;;;;;;;;5138469;27;20031;-71
2021/10/19 12:23:00;;;;;;;6.32;3.90;;;;;;;;;;5138903;27;20398;-72
2021/10/19 12:25:26;;;;;;;5.85;5.25;;;;;;;;;;5138558;27;20382;-71
2021/10/19 12:27:52;;;;;;;6.38;4.70;;;;;;;;;;5139818;27;20642;-72
2021/10/19 12:30:19;;;;;;;5.10;4.07;;;;;;;;;;5138112;27;20033;-72
2021/10/19 12:32:45;;;;;;;5.05;4.03;;;;;;;;;;5134305;27;20037;-71
2021/10/19 12:35:12;;;;;;;4.45;3.92;;;;;;;;;;5139756;27;20029;-72
2021/10/19 12:37:39;;;;;;;4.90;3.40;;;;;;;;;;5138347;27;20034;-71
2021/10/19 12:40:07;;;;;;;5.18;3.97;;;;;;;;;;5132759;27;20023;-71
2021/10/19 12:42:33;;;;;;;5.70;4.15;;;;;;;;;;5135192;27;20034;-71
2021/10/19 12:44:59;;;;;;;7.03;3.53;;;;;;;;;;5134184;27;20384;-71
2021/10/19 12:47:25;;;;;;;4.55;3.58;;;;;;;;;;5138764;27;20427;-71
2021/10/19 12:49:53;;;;;;;3.97;3.22;;;;;;;;;;5139636;27;20480;-71
2021/10/19 12:52:20;;;;;;;4.20;3.30;;;;;;;;;;5138134;27;20066;-71
2021/10/19 12:54:46;;;;;;;4.25;3.53;;;;;;;;;;5135914;27;20126;-71
2021/10/19 12:57:14;;;;;;;5.18;3.53;;;;;;;;;;5139944;27;20342;-71
2021/10/19 12:59:41;;;;;;;4.25;3.85;;;;;;;;;;5140143;27;20642;-71
2021/10/19 13:02:08;;;;;;;3.55;3.22;;;;;;;;;;5139232;27;20398;-71
2021/10/19 13:04:34;;;;;;;4.07;3.67;;;;;;;;;;5141086;27;20034;-72
2021/10/19 13:07:03;;;;;;;4.45;3.35;;;;;;;;;;5140592;27;20060;-71
2021/10/19 13:09:29;;;;;;;3.80;3.42;;;;;;;;;;5129110;27;20027;-73
2021/10/19 13:11:56;;;;;;;5.20;3.28;;;;;;;;;;5137312;27;20810;-72
2021/10/19 13:14:22;;;;;;;4.38;3.38;;;;;;;;;;5139983;27;20026;-72
2021/10/19 13:16:48;;;;;;;6.53;3.45;;;;;;;;;;5137574;27;20034;-72
2021/10/19 13:19:14;;;;;;;5.97;3.38;;;;;;;;;;5140399;27;20037;-72
2021/10/19 13:21:42;;;;;;;3.42;3.10;;;;;;;;;;5124598;27;20027;-73
2021/10/19 13:24:09;;;;;;;4.35;3.60;;;;;;;;;;5120381;27;20031;-72
2021/10/19 13:26:35;;;;;;;4.78;3.50;;;;;;;;;;5140369;27;20023;-72
2021/10/19 13:29:01;;;;;;;4.13;3.72;;;;;;;;;;5140951;27;20398;-71
2021/10/19 13:31:28;;;;;;;4.45;3.80;;;;;;;;;;5139467;27;20058;-73
2021/10/19 13:33:54;;;;;;;5.00;3.78;;;;;;;;;;5139580;27;20600;-71
2021/10/19 13:36:21;;;;;;;5.65;3.80;;;;;;;;;;5140508;27;20041;-71
2021/10/19 13:38:47;;;;;;;4.32;3.53;;;;;;;;;;5139305;27;20027;-72
2021/10/19 13:41:16;;;;;;;4.50;3.92;;;;;;;;;;5139923;27;20031;-72
2021/10/19 13:43:43;;;;;;;4.40;4.00;;;;;;;;;;5138731;27;20090;-71
2021/10/19 13:46:09;;;;;;;4.90;3.70;;;;;;;;;;5140326;27;20041;-72
2021/10/19 13:48:37;;;;;;;6.03;4.03;;;;;;;;;;5138530;27;20098;-71
2021/10/19 13:51:03;;;;;;;6.00;3.90;;;;;;;;;;5140282;27;20023;-72
2021/10/19 13:53:29;;;;;;;3.95;3.35;;;;;;;;;;5139789;27;20423;-72
2021/10/19 13:55:55;;;;;;;4.22;3.38;;;;;;;;;;5139818;27;20197;-72
2021/10/19 13:58:22;;;;;;;4.60;3.83;;;;;;;;;;5138408;27;20042;-72
2021/10/19 14:00:48;;;;;;;4.50;3.13;;;;;;;;;;5139674;27;20023;-72
2021/10/19 14:03:14;;;;;;;4.28;3.58;;;;;;;;;;5138651;27;20542;-71
2021/10/19 14:05:41;;;;;;;4.30;3.63;;;;;;;;;;5136425;27;20041;-72
2021/10/19 14:08:10;;;;;;;4.60;3.63;;;;;;;;;;5128433;27;20049;-71
2021/10/19 14:10:40;;;;;;;4.57;3.58;;;;;;;;;;5139816;27;20260;-72
2021/10/19 14:13:06;;;;;;;3.85;3.40;;;;;;;;;;5140030;27;20022;-71
2021/10/19 14:15:32;;;;;;;6.93;3.75;;;;;;;;;;5140139;27;20023;-72
2021/10/19 14:17:59;;;;;;;4.15;3.38;;;;;;;;;;5139660;27;20554;-71
2021/10/19 14:20:25;;;;;;;8.48;4.20;;;;;;;;;;5138184;27;20080;-72
2021/10/19 14:22:52;;;;;;;4.93;3.95;;;;;;;;;;5140333;27;20034;-71
2021/10/19 14:25:20;;;;;;;5.47;3.55;;;;;;;;;;5137951;27;20388;-72
2021/10/19 14:27:46;;;;;;;4.53;3.80;;;;;;;;;;5141989;27;20022;-71
2021/10/19 14:30:12;;;;;;;5.18;3.78;;;;;;;;;;5141001;27;20021;-71
2021/10/19 14:32:38;;;;;;;4.18;3.78;;;;;;;;;;5143704;27;20490;-71
2021/10/19 14:35:05;;;;;;;5.03;4.20;;;;;;;;;;5144065;27;20457;-71
2021/10/19 14:37:31;;;;;;;4.93;3.97;;;;;;;;;;5143121;27;20049;-72
2021/10/19 14:39:57;;;;;;;7.65;4.15;;;;;;;;;;5131960;27;20505;-72
2021/10/19 14:42:25;;;;;;;5.88;4.05;;;;;;;;;;5120849;27;20271;-72